sensor_id;sensor_type;location;lat;lon;timestamp;pressure;altitude;pressure_sealevel;temperature;humidity
42587;BME280;28216;53.362;-6.288;2023-03-18T00:02:04;99758.88;;;10.99;100.00
42587;BME280;28216;53.362;-6.288;2023-03-18T00:04:29;99757.72;;;11.02;100.00
42587;BME280;28216;53.362;-6.288;2023-03-18T00:06:55;99765.38;;;11.03;100.00
42587;BME280;28216;53.362;-6.288;2023-03-18T00:09:21;99766.19;;;11.04;100.00
42587;BME280;28216;53.362;-6.288;2023-03-18T00:11:46;99770.63;;;11.03;100.00
42587;BME280;28216;53.362;-6.288;2023-03-18T00:14:12;99775.69;;;11.05;100.00
42587;BME280;28216;53.362;-6.288;2023-03-18T00:16:38;99773.06;;;11.05;100.00
42587;BME280;28216;53.362;-6.288;2023-03-18T00:19:04;99778.50;;;11.03;100.00
42587;BME280;28216;53.362;-6.288;2023-03-18T00:21:30;99775.06;;;11.03;100.00
42587;BME280;28216;53.362;-6.288;2023-03-18T00:23:56;99775.88;;;11.03;100.00
42587;BME280;28216;53.362;-6.288;2023-03-18T00:26:23;99782.94;;;11.03;100.00
42587;BME280;28216;53.362;-6.288;2023-03-18T00:28:50;99789.00;;;11.03;100.00
42587;BME280;28216;53.362;-6.288;2023-03-18T00:31:16;99787.38;;;11.02;100.00
42587;BME280;28216;53.362;-6.288;2023-03-18T00:33:42;99790.81;;;11.03;100.00
42587;BME280;28216;53.362;-6.288;2023-03-18T00:36:10;99793.44;;;11.03;100.00
42587;BME280;28216;53.362;-6.288;2023-03-18T00:38:42;99798.06;;;11.01;100.00
42587;BME280;28216;53.362;-6.288;2023-03-18T00:41:08;99793.00;;;10.99;100.00
42587;BME280;28216;53.362;-6.288;2023-03-18T00:43:47;99799.84;;;11.00;100.00
42587;BME280;28216;53.362;-6.288;2023-03-18T00:46:28;99803.47;;;10.99;100.00
42587;BME280;28216;53.362;-6.288;2023-03-18T00:48:55;99799.84;;;11.00;100.00
42587;BME280;28216;53.362;-6.288;2023-03-18T00:51:24;99799.22;;;10.98;100.00
42587;BME280;28216;53.362;-6.288;2023-03-18T00:53:53;99803.47;;;10.99;100.00
42587;BME280;28216;53.362;-6.288;2023-03-18T00:56:21;99801.03;;;10.98;100.00
42587;BME280;28216;53.362;-6.288;2023-03-18T00:58:49;99795.63;;;10.99;100.00
42587;BME280;28216;53.362;-6.288;2023-03-18T01:01:15;99795.63;;;10.99;100.00
42587;BME280;28216;53.362;-6.288;2023-03-18T01:03:42;99795.44;;;11.01;100.00
42587;BME280;28216;53.362;-6.288;2023-03-18T01:06:10;99795.63;;;10.99;100.00
42587;BME280;28216;53.362;-6.288;2023-03-18T01:08:37;99798.22;;;10.99;100.00
42587;BME280;28216;53.362;-6.288;2023-03-18T01:11:03;99797.59;;;10.97;100.00
42587;BME280;28216;53.362;-6.288;2023-03-18T01:13:29;99807.09;;;10.98;100.00
42587;BME280;28216;53.362;-6.288;2023-03-18T01:15:55;99800.84;;;10.99;100.00
42587;BME280;28216;53.362;-6.288;2023-03-18T01:18:22;99806.72;;;11.01;100.00
42587;BME280;28216;53.362;-6.288;2023-03-18T01:20:48;99808.53;;;11.01;100.00
42587;BME280;28216;53.362;-6.288;2023-03-18T01:23:14;99811.59;;;11.04;100.00
42587;BME280;28216;53.362;-6.288;2023-03-18T01:25:40;99804.75;;;11.03;100.00
42587;BME280;28216;53.362;-6.288;2023-03-18T01:28:06;99805.56;;;11.04;100.00
42587;BME280;28216;53.362;-6.288;2023-03-18T01:30:32;99808.34;;;11.02;100.00
42587;BME280;28216;53.362;-6.288;2023-03-18T01:33:00;99810.97;;;11.02;100.00
42587;BME280;28216;53.362;-6.288;2023-03-18T01:35:26;99813.59;;;11.02;100.00
42587;BME280;28216;53.362;-6.288;2023-03-18T01:37:52;99815.22;;;11.03;100.00
42587;BME280;28216;53.362;-6.288;2023-03-18T01:40:19;99817.66;;;11.05;100.00
42587;BME280;28216;53.362;-6.288;2023-03-18T01:49:44;99821.66;;;11.01;100.00
42587;BME280;28216;53.362;-6.288;2023-03-18T01:52:32;99826.34;;;11.05;100.00
42587;BME280;28216;53.362;-6.288;2023-03-18T02:01:26;99821.91;;;11.06;100.00
42587;BME280;28216;53.362;-6.288;2023-03-18T02:03:54;99826.16;;;11.07;100.00
42587;BME280;28216;53.362;-6.288;2023-03-18T02:06:21;99834.84;;;11.07;100.00
42587;BME280;28216;53.362;-6.288;2023-03-18T02:08:47;99837.28;;;11.09;100.00
42587;BME280;28216;53.362;-6.288;2023-03-18T02:11:13;99841.53;;;11.10;100.00
42587;BME280;28216;53.362;-6.288;2023-03-18T02:13:41;99832.66;;;11.11;100.00
42587;BME280;28216;53.362;-6.288;2023-03-18T02:16:14;99836.28;;;11.10;100.00
42587;BME280;28216;53.362;-6.288;2023-03-18T02:18:43;99835.47;;;11.09;100.00
42587;BME280;28216;53.362;-6.288;2023-03-18T02:21:32;99839.53;;;11.12;100.00
42587;BME280;28216;53.362;-6.288;2023-03-18T02:24:15;99847.59;;;11.10;100.00
42587;BME280;28216;53.362;-6.288;2023-03-18T02:29:19;99846.53;;;11.05;100.00
42587;BME280;28216;53.362;-6.288;2023-03-18T02:31:46;99845.72;;;11.04;100.00
42587;BME280;28216;53.362;-6.288;2023-03-18T02:34:13;99851.94;;;11.03;100.00
42587;BME280;28216;53.362;-6.288;2023-03-18T02:36:39;99846.25;;;11.00;100.00
42587;BME280;28216;53.362;-6.288;2023-03-18T02:39:06;99851.31;;;11.01;100.00
42587;BME280;28216;53.362;-6.288;2023-03-18T02:41:33;99858.56;;;10.99;100.00
42587;BME280;28216;53.362;-6.288;2023-03-18T02:44:00;99852.69;;;10.97;100.00
42587;BME280;28216;53.362;-6.288;2023-03-18T02:47:00;99852.06;;;10.95;100.00
42587;BME280;28216;53.362;-6.288;2023-03-18T02:49:27;99855.94;;;10.99;100.00
42587;BME280;28216;53.362;-6.288;2023-03-18T02:51:53;99850.06;;;10.97;100.00
42587;BME280;28216;53.362;-6.288;2023-03-18T02:54:22;99856.94;;;10.98;100.00
42587;BME280;28216;53.362;-6.288;2023-03-18T02:56:48;99854.13;;;11.00;100.00
42587;BME280;28216;53.362;-6.288;2023-03-18T02:59:14;99865.44;;;11.00;100.00
42587;BME280;28216;53.362;-6.288;2023-03-18T03:01:41;99865.81;;;10.97;100.00
42587;BME280;28216;53.362;-6.288;2023-03-18T03:04:07;99869.41;;;10.96;100.00
42587;BME280;28216;53.362;-6.288;2023-03-18T03:06:33;99865.16;;;10.95;100.00
42587;BME280;28216;53.362;-6.288;2023-03-18T03:08:59;99868.16;;;10.92;100.00
42587;BME280;28216;53.362;-6.288;2023-03-18T03:11:26;99866.34;;;10.93;100.00
42587;BME280;28216;53.362;-6.288;2023-03-18T03:13:52;99870.59;;;10.94;100.00
42587;BME280;28216;53.362;-6.288;2023-03-18T03:16:18;99874.84;;;10.95;100.00
42587;BME280;28216;53.362;-6.288;2023-03-18T03:18:43;99880.28;;;10.93;100.00
42587;BME280;28216;53.362;-6.288;2023-03-18T03:21:10;99884.09;;;10.91;100.00
42587;BME280;28216;53.362;-6.288;2023-03-18T03:23:37;99886.69;;;10.91;100.00
42587;BME280;28216;53.362;-6.288;2023-03-18T03:26:04;99884.44;;;10.88;100.00
42587;BME280;28216;53.362;-6.288;2023-03-18T03:28:29;99882.81;;;10.87;100.00
42587;BME280;28216;53.362;-6.288;2023-03-18T03:30:57;99884.44;;;10.88;100.00
42587;BME280;28216;53.362;-6.288;2023-03-18T03:33:23;99887.25;;;10.86;100.00
42587;BME280;28216;53.362;-6.288;2023-03-18T03:35:49;99886.25;;;10.87;100.00
42587;BME280;28216;53.362;-6.288;2023-03-18T03:38:15;99888.88;;;10.87;100.00
42587;BME280;28216;53.362;-6.288;2023-03-18T03:40:40;99890.69;;;10.87;100.00
42587;BME280;28216;53.362;-6.288;2023-03-18T03:43:06;99887.88;;;10.88;100.00
42587;BME280;28216;53.362;-6.288;2023-03-18T03:45:31;99894.94;;;10.88;100.00
42587;BME280;28216;53.362;-6.288;2023-03-18T03:47:58;99892.31;;;10.88;100.00
42587;BME280;28216;53.362;-6.288;2023-03-18T03:50:23;99898.19;;;10.90;100.00
42587;BME280;28216;53.362;-6.288;2023-03-18T03:52:49;99893.94;;;10.89;100.00
42587;BME280;28216;53.362;-6.288;2023-03-18T03:55:17;99899.19;;;10.89;100.00
42587;BME280;28216;53.362;-6.288;2023-03-18T03:57:44;99906.06;;;10.90;100.00
42587;BME280;28216;53.362;-6.288;2023-03-18T04:00:14;99896.38;;;10.90;100.00
42587;BME280;28216;53.362;-6.288;2023-03-18T04:02:42;99894.38;;;10.92;100.00
42587;BME280;28216;53.362;-6.288;2023-03-18T04:05:09;99897.81;;;10.93;100.00
42587;BME280;28216;53.362;-6.288;2023-03-18T04:07:36;99900.25;;;10.94;100.00
42587;BME280;28216;53.362;-6.288;2023-03-18T04:10:02;99898.63;;;10.93;100.00
42587;BME280;28216;53.362;-6.288;2023-03-18T04:12:28;99895.03;;;10.94;100.00
42587;BME280;28216;53.362;-6.288;2023-03-18T04:14:53;99903.53;;;10.96;100.00
42587;BME280;28216;53.362;-6.288;2023-03-18T04:17:19;99893.84;;;10.97;100.00
42587;BME280;28216;53.362;-6.288;2023-03-18T04:19:44;99902.53;;;10.97;100.00
42587;BME280;28216;53.362;-6.288;2023-03-18T04:22:10;99895.47;;;10.98;100.00
42587;BME280;28216;53.362;-6.288;2023-03-18T04:24:35;99892.03;;;10.97;100.00
42587;BME280;28216;53.362;-6.288;2023-03-18T04:27:02;99894.66;;;10.97;100.00
42587;BME280;28216;53.362;-6.288;2023-03-18T04:29:27;99898.28;;;10.96;100.00
42587;BME280;28216;53.362;-6.288;2023-03-18T04:31:53;99901.88;;;10.95;100.00
42587;BME280;28216;53.362;-6.288;2023-03-18T04:34:18;99889.97;;;10.93;100.00
42587;BME280;28216;53.362;-6.288;2023-03-18T04:36:44;99888.16;;;10.93;100.00
42587;BME280;28216;53.362;-6.288;2023-03-18T04:39:10;99895.56;;;10.90;100.00
42587;BME280;28216;53.362;-6.288;2023-03-18T04:41:35;99902.00;;;10.87;100.00
42587;BME280;28216;53.362;-6.288;2023-03-18T04:44:04;99897.91;;;10.85;100.00
42587;BME280;28216;53.362;-6.288;2023-03-18T04:46:30;99905.34;;;10.81;100.00
42587;BME280;28216;53.362;-6.288;2023-03-18T04:48:57;99908.94;;;10.80;100.00
42587;BME280;28216;53.362;-6.288;2023-03-18T04:51:24;99914.56;;;10.77;100.00
42587;BME280;28216;53.362;-6.288;2023-03-18T04:53:49;99915.56;;;10.76;100.00
42587;BME280;28216;53.362;-6.288;2023-03-18T04:56:15;99914.94;;;10.74;100.00
42587;BME280;28216;53.362;-6.288;2023-03-18T04:58:42;99917.91;;;10.71;100.00
42587;BME280;28216;53.362;-6.288;2023-03-18T05:01:07;99916.28;;;10.70;100.00
42587;BME280;28216;53.362;-6.288;2023-03-18T05:03:34;99919.72;;;10.70;100.00
42587;BME280;28216;53.362;-6.288;2023-03-18T05:05:59;99917.09;;;10.70;100.00
42587;BME280;28216;53.362;-6.288;2023-03-18T05:08:25;99923.34;;;10.69;100.00
42587;BME280;28216;53.362;-6.288;2023-03-18T05:10:51;99918.91;;;10.70;100.00
42587;BME280;28216;53.362;-6.288;2023-03-18T05:13:17;99926.94;;;10.68;100.00
42587;BME280;28216;53.362;-6.288;2023-03-18T05:15:43;99926.50;;;10.65;100.00
42587;BME280;28216;53.362;-6.288;2023-03-18T05:18:09;99926.03;;;10.61;100.00
42587;BME280;28216;53.362;-6.288;2023-03-18T05:20:34;99926.75;;;10.55;100.00
42587;BME280;28216;53.362;-6.288;2023-03-18T05:23:00;99938.59;;;10.51;100.00
42587;BME280;28216;53.362;-6.288;2023-03-18T05:25:27;99934.25;;;10.43;100.00
42587;BME280;28216;53.362;-6.288;2023-03-18T05:27:52;99941.63;;;10.40;100.00
42587;BME280;28216;53.362;-6.288;2023-03-18T05:30:18;99941.16;;;10.36;100.00
42587;BME280;28216;53.362;-6.288;2023-03-18T05:32:45;99933.81;;;10.32;100.00
42587;BME280;28216;53.362;-6.288;2023-03-18T05:35:11;99935.81;;;10.30;100.00
42587;BME280;28216;53.362;-6.288;2023-03-18T05:37:37;99938.97;;;10.25;100.00
42587;BME280;28216;53.362;-6.288;2023-03-18T05:40:04;99937.84;;;10.19;100.00
42587;BME280;28216;53.362;-6.288;2023-03-18T05:42:34;99935.75;;;10.15;100.00
42587;BME280;28216;53.362;-6.288;2023-03-18T05:45:00;99949.38;;;10.10;100.00
42587;BME280;28216;53.362;-6.288;2023-03-18T05:47:26;99949.25;;;10.04;100.00
42587;BME280;28216;53.362;-6.288;2023-03-18T05:49:52;99944.19;;;10.02;100.00
42587;BME280;28216;53.362;-6.288;2023-03-18T05:52:17;99958.28;;;10.01;100.00
42587;BME280;28216;53.362;-6.288;2023-03-18T05:54:42;99959.91;;;10.02;100.00
42587;BME280;28216;53.362;-6.288;2023-03-18T05:57:08;99967.41;;;10.05;100.00
42587;BME280;28216;53.362;-6.288;2023-03-18T05:59:34;99954.97;;;10.07;100.00
42587;BME280;28216;53.362;-6.288;2023-03-18T06:02:00;99955.59;;;10.09;100.00
42587;BME280;28216;53.362;-6.288;2023-03-18T06:04:26;99953.44;;;10.13;100.00
42587;BME280;28216;53.362;-6.288;2023-03-18T06:06:52;99957.69;;;10.14;100.00
42587;BME280;28216;53.362;-6.288;2023-03-18T06:09:17;99956.88;;;10.13;100.00
42587;BME280;28216;53.362;-6.288;2023-03-18T06:11:43;99952.47;;;10.14;100.00
42587;BME280;28216;53.362;-6.288;2023-03-18T06:14:09;99954.09;;;10.15;100.00
42587;BME280;28216;53.362;-6.288;2023-03-18T06:16:35;99966.53;;;10.13;100.00
42587;BME280;28216;53.362;-6.288;2023-03-18T06:19:02;99977.84;;;10.13;100.00
42587;BME280;28216;53.362;-6.288;2023-03-18T06:21:27;99981.63;;;10.11;100.00
42587;BME280;28216;53.362;-6.288;2023-03-18T06:23:56;99974.75;;;10.10;100.00
42587;BME280;28216;53.362;-6.288;2023-03-18T06:26:21;99985.06;;;10.11;100.00
42587;BME280;28216;53.362;-6.288;2023-03-18T06:28:47;99977.38;;;10.10;100.00
42587;BME280;28216;53.362;-6.288;2023-03-18T06:31:12;99990.47;;;10.10;100.00
42587;BME280;28216;53.362;-6.288;2023-03-18T06:33:38;99990.28;;;10.11;100.00
42587;BME280;28216;53.362;-6.288;2023-03-18T06:36:04;99992.91;;;10.11;100.00
42587;BME280;28216;53.362;-6.288;2023-03-18T06:38:30;99998.50;;;10.08;100.00
42587;BME280;28216;53.362;-6.288;2023-03-18T06:40:57;100000.31;;;10.08;100.00
42587;BME280;28216;53.362;-6.288;2023-03-18T06:43:22;99998.03;;;10.05;100.00
42587;BME280;28216;53.362;-6.288;2023-03-18T06:45:48;100002.81;;;10.01;100.00
42587;BME280;28216;53.362;-6.288;2023-03-18T06:48:14;100012.16;;;9.96;100.00
42587;BME280;28216;53.362;-6.288;2023-03-18T06:50:41;100005.81;;;9.90;100.00
42587;BME280;28216;53.362;-6.288;2023-03-18T06:53:09;100015.00;;;9.86;100.00
42587;BME280;28216;53.362;-6.288;2023-03-18T06:55:35;100019.78;;;9.82;100.00
42587;BME280;28216;53.362;-6.288;2023-03-18T06:58:04;100016.50;;;9.80;100.00
42587;BME280;28216;53.362;-6.288;2023-03-18T07:00:31;100025.69;;;9.76;100.00
42587;BME280;28216;53.362;-6.288;2023-03-18T07:03:00;100024.59;;;9.71;100.00
42587;BME280;28216;53.362;-6.288;2023-03-18T07:05:29;100031.97;;;9.67;100.00
42587;BME280;28216;53.362;-6.288;2023-03-18T07:07:56;100029.81;;;9.63;100.00
42587;BME280;28216;53.362;-6.288;2023-03-18T07:10:32;100042.44;;;9.59;100.00
42587;BME280;28216;53.362;-6.288;2023-03-18T07:12:59;100040.16;;;9.56;100.00
42587;BME280;28216;53.362;-6.288;2023-03-18T07:15:24;100038.38;;;9.56;100.00
42587;BME280;28216;53.362;-6.288;2023-03-18T07:17:50;100047.84;;;9.57;100.00
42587;BME280;28216;53.362;-6.288;2023-03-18T07:20:25;100044.25;;;9.59;100.00
42587;BME280;28216;53.362;-6.288;2023-03-18T07:23:00;100038.03;;;9.60;100.00
42587;BME280;28216;53.362;-6.288;2023-03-18T07:25:26;100057.00;;;9.62;100.00
42587;BME280;28216;53.362;-6.288;2023-03-18T07:27:51;100058.13;;;9.67;100.00
42587;BME280;28216;53.362;-6.288;2023-03-18T07:30:17;100060.84;;;9.82;100.00
42587;BME280;28216;53.362;-6.288;2023-03-18T07:32:43;100059.31;;;9.96;100.00
42587;BME280;28216;53.362;-6.288;2023-03-18T07:35:10;100064.97;;;10.07;100.00
42587;BME280;28216;53.362;-6.288;2023-03-18T07:37:39;100068.69;;;10.21;100.00
42587;BME280;28216;53.362;-6.288;2023-03-18T07:40:05;100069.91;;;10.33;100.00
42587;BME280;28216;53.362;-6.288;2023-03-18T07:42:30;100079.47;;;10.49;100.00
42587;BME280;28216;53.362;-6.288;2023-03-18T07:44:58;100075.63;;;10.60;100.00
42587;BME280;28216;53.362;-6.288;2023-03-18T07:47:34;100074.22;;;10.72;100.00
42587;BME280;28216;53.362;-6.288;2023-03-18T07:50:28;100076.88;;;10.87;100.00
42587;BME280;28216;53.362;-6.288;2023-03-18T07:52:54;100075.28;;;11.00;100.00
42587;BME280;28216;53.362;-6.288;2023-03-18T07:55:19;100082.34;;;11.14;100.00
42587;BME280;28216;53.362;-6.288;2023-03-18T07:57:45;100078.31;;;11.27;100.00
42587;BME280;28216;53.362;-6.288;2023-03-18T08:00:11;100082.13;;;11.39;100.00
42587;BME280;28216;53.362;-6.288;2023-03-18T08:02:38;100092.53;;;11.47;100.00
42587;BME280;28216;53.362;-6.288;2023-03-18T08:05:04;100085.56;;;11.54;100.00
42587;BME280;28216;53.362;-6.288;2023-03-18T08:07:32;100088.44;;;11.59;100.00
42587;BME280;28216;53.362;-6.288;2023-03-18T08:09:58;100092.63;;;11.68;100.00
42587;BME280;28216;53.362;-6.288;2023-03-18T08:12:24;100098.44;;;11.78;100.00
42587;BME280;28216;53.362;-6.288;2023-03-18T08:14:50;100098.94;;;11.89;100.00
42587;BME280;28216;53.362;-6.288;2023-03-18T08:17:17;100094.88;;;12.01;100.00
42587;BME280;28216;53.362;-6.288;2023-03-18T08:19:45;100092.41;;;12.14;100.00
42587;BME280;28216;53.362;-6.288;2023-03-18T08:22:19;100108.31;;;12.27;100.00
42587;BME280;28216;53.362;-6.288;2023-03-18T08:24:48;100105.94;;;12.32;100.00
42587;BME280;28216;53.362;-6.288;2023-03-18T08:27:14;100112.81;;;12.33;100.00
42587;BME280;28216;53.362;-6.288;2023-03-18T08:29:39;100111.91;;;12.41;100.00
42587;BME280;28216;53.362;-6.288;2023-03-18T08:32:11;100112.03;;;12.54;100.00
42587;BME280;28216;53.362;-6.288;2023-03-18T08:34:37;100111.75;;;12.64;100.00
42587;BME280;28216;53.362;-6.288;2023-03-18T08:37:03;100112.47;;;12.79;100.00
42587;BME280;28216;53.362;-6.288;2023-03-18T08:39:32;100118.84;;;12.91;100.00
42587;BME280;28216;53.362;-6.288;2023-03-18T08:41:58;100122.03;;;13.08;100.00
42587;BME280;28216;53.362;-6.288;2023-03-18T08:44:24;100123.59;;;13.24;100.00
42587;BME280;28216;53.362;-6.288;2023-03-18T08:46:49;100120.75;;;13.25;100.00
42587;BME280;28216;53.362;-6.288;2023-03-18T08:49:15;100118.25;;;13.39;100.00
42587;BME280;28216;53.362;-6.288;2023-03-18T08:51:40;100124.50;;;13.38;100.00
42587;BME280;28216;53.362;-6.288;2023-03-18T08:54:27;100130.53;;;13.31;100.00
42587;BME280;28216;53.362;-6.288;2023-03-18T08:56:54;100126.47;;;13.29;100.00
42587;BME280;28216;53.362;-6.288;2023-03-18T08:59:21;100131.78;;;13.14;100.00
42587;BME280;28216;53.362;-6.288;2023-03-18T09:01:55;100134.50;;;12.99;100.00
42587;BME280;28216;53.362;-6.288;2023-03-18T09:04:21;100134.50;;;12.99;100.00
42587;BME280;28216;53.362;-6.288;2023-03-18T09:06:49;100143.34;;;12.92;100.00
42587;BME280;28216;53.362;-6.288;2023-03-18T09:09:14;100141.09;;;12.89;100.00
42587;BME280;28216;53.362;-6.288;2023-03-18T09:11:43;100140.47;;;12.87;100.00
42587;BME280;28216;53.362;-6.288;2023-03-18T09:14:10;100139.28;;;12.89;100.00
42587;BME280;28216;53.362;-6.288;2023-03-18T09:16:37;100139.66;;;12.86;100.00
42587;BME280;28216;53.362;-6.288;2023-03-18T09:19:03;100139.47;;;12.88;100.00
42587;BME280;28216;53.362;-6.288;2023-03-18T09:21:28;100136.22;;;12.86;100.00
42587;BME280;28216;53.362;-6.288;2023-03-18T09:23:54;100141.09;;;12.89;100.00
42587;BME280;28216;53.362;-6.288;2023-03-18T09:26:19;100146.19;;;12.90;100.00
42587;BME280;28216;53.362;-6.288;2023-03-18T09:28:45;100147.84;;;12.98;100.00
42587;BME280;28216;53.362;-6.288;2023-03-18T09:31:11;100141.41;;;13.00;100.00
42587;BME280;28216;53.362;-6.288;2023-03-18T09:33:37;100146.53;;;13.09;100.00
42587;BME280;28216;53.362;-6.288;2023-03-18T09:36:06;100150.16;;;13.08;100.00
42587;BME280;28216;53.362;-6.288;2023-03-18T09:38:32;100142.13;;;13.16;100.00
42587;BME280;28216;53.362;-6.288;2023-03-18T09:41:19;100159.25;;;13.05;100.00
42587;BME280;28216;53.362;-6.288;2023-03-18T09:52:17;100165.47;;;12.97;100.00
42587;BME280;28216;53.362;-6.288;2023-03-18T09:54:55;100172.53;;;12.97;100.00
42587;BME280;28216;53.362;-6.288;2023-03-18T09:57:36;100172.91;;;12.94;100.00
42587;BME280;28216;53.362;-6.288;2023-03-18T10:00:17;100176.75;;;12.91;100.00
42587;BME280;28216;53.362;-6.288;2023-03-18T10:02:53;100186.94;;;12.80;100.00
42587;BME280;28216;53.362;-6.288;2023-03-18T10:05:29;100180.94;;;12.86;100.00
42587;BME280;28216;53.362;-6.288;2023-03-18T10:08:02;100188.16;;;12.98;100.00
42587;BME280;28216;53.362;-6.288;2023-03-18T10:10:41;100176.81;;;12.98;100.00
42587;BME280;28216;53.362;-6.288;2023-03-18T10:13:22;100192.16;;;12.94;100.00
42587;BME280;28216;53.362;-6.288;2023-03-18T10:16:00;100186.84;;;12.88;100.00
42587;BME280;28216;53.362;-6.288;2023-03-18T10:18:38;100194.91;;;12.86;100.00
42587;BME280;28216;53.362;-6.288;2023-03-18T10:21:37;100197.53;;;12.86;100.00
42587;BME280;28216;53.362;-6.288;2023-03-18T10:27:20;100204.81;;;12.84;100.00
42587;BME280;28216;53.362;-6.288;2023-03-18T10:30:20;100205.94;;;12.75;100.00
42587;BME280;28216;53.362;-6.288;2023-03-18T10:39:06;100207.59;;;13.19;100.00
42587;BME280;28216;53.362;-6.288;2023-03-18T10:41:31;100211.84;;;13.20;100.00
42587;BME280;28216;53.362;-6.288;2023-03-18T10:44:19;100207.41;;;13.20;100.00
42587;BME280;28216;53.362;-6.288;2023-03-18T10:46:47;100208.69;;;13.31;100.00
42587;BME280;28216;53.362;-6.288;2023-03-18T10:49:25;100216.84;;;13.36;100.00
42587;BME280;28216;53.362;-6.288;2023-03-18T10:51:56;100214.22;;;13.36;100.00
42587;BME280;28216;53.362;-6.288;2023-03-18T10:57:02;100212.97;;;13.32;100.00
42587;BME280;28216;53.362;-6.288;2023-03-18T10:59:28;100223.09;;;13.35;100.00
42587;BME280;28216;53.362;-6.288;2023-03-18T11:02:04;100227.94;;;13.31;100.00
42587;BME280;28216;53.362;-6.288;2023-03-18T11:04:40;100232.28;;;13.18;100.00
42587;BME280;28216;53.362;-6.288;2023-03-18T11:07:17;100233.63;;;13.14;100.00
42587;BME280;28216;53.362;-6.288;2023-03-18T11:09:43;100239.19;;;13.19;100.00
42587;BME280;28216;53.362;-6.288;2023-03-18T11:12:15;100238.56;;;13.17;100.00
42587;BME280;28216;53.362;-6.288;2023-03-18T11:14:46;100245.78;;;13.15;100.00
42587;BME280;28216;53.362;-6.288;2023-03-18T11:20:01;100247.16;;;13.11;100.00
42587;BME280;28216;53.362;-6.288;2023-03-18T11:22:31;100243.63;;;13.18;100.00
42587;BME280;28216;53.362;-6.288;2023-03-18T11:25:01;100245.94;;;13.28;100.00
42587;BME280;28216;53.362;-6.288;2023-03-18T11:27:40;100248.69;;;13.20;100.00
42587;BME280;28216;53.362;-6.288;2023-03-18T11:33:04;100246.06;;;13.20;100.00
42587;BME280;28216;53.362;-6.288;2023-03-18T11:35:52;100253.34;;;13.18;100.00
42587;BME280;28216;53.362;-6.288;2023-03-18T11:38:29;100258.59;;;13.18;100.00
42587;BME280;28216;53.362;-6.288;2023-03-18T11:41:15;100257.31;;;13.14;100.00
42587;BME280;28216;53.362;-6.288;2023-03-18T11:43:58;100264.72;;;13.03;100.00
42587;BME280;28216;53.362;-6.288;2023-03-18T11:46:27;100275.72;;;12.92;100.00
42587;BME280;28216;53.362;-6.288;2023-03-18T11:48:55;100274.66;;;12.87;100.00
42587;BME280;28216;53.362;-6.288;2023-03-18T11:51:43;100274.84;;;12.85;100.00
42587;BME280;28216;53.362;-6.288;2023-03-18T11:54:27;100279.09;;;12.86;100.00
42587;BME280;28216;53.362;-6.288;2023-03-18T11:57:17;100269.84;;;12.90;100.00
42587;BME280;28216;53.362;-6.288;2023-03-18T12:00:05;100280.41;;;12.76;100.00
42587;BME280;28216;53.362;-6.288;2023-03-18T12:08:33;100310.06;;;11.96;100.00
42587;BME280;28216;53.362;-6.288;2023-03-18T12:11:10;100312.03;;;11.94;100.00
42587;BME280;28216;53.362;-6.288;2023-03-18T12:16:35;100320.97;;;11.85;100.00
42587;BME280;28216;53.362;-6.288;2023-03-18T12:32:37;100358.38;;;11.87;100.00
42587;BME280;28216;53.362;-6.288;2023-03-18T12:43:37;100378.84;;;11.45;100.00
42587;BME280;28216;53.362;-6.288;2023-03-18T12:49:16;100390.13;;;11.23;100.00
42587;BME280;28216;53.362;-6.288;2023-03-18T12:54:20;100397.41;;;11.05;100.00
42587;BME280;28216;53.362;-6.288;2023-03-18T12:56:50;100402.16;;;11.09;100.00
42587;BME280;28216;53.362;-6.288;2023-03-18T12:59:25;100406.47;;;11.33;100.00
42587;BME280;28216;53.362;-6.288;2023-03-18T13:04:32;100412.16;;;11.68;100.00
42587;BME280;28216;53.362;-6.288;2023-03-18T13:07:16;100413.53;;;11.87;100.00
42587;BME280;28216;53.362;-6.288;2023-03-18T13:09:53;100424.41;;;11.84;100.00
42587;BME280;28216;53.362;-6.288;2023-03-18T13:12:38;100423.44;;;11.76;100.00
42587;BME280;28216;53.362;-6.288;2023-03-18T13:17:53;100434.19;;;11.36;100.00
42587;BME280;28216;53.362;-6.288;2023-03-18T13:20:23;100445.16;;;11.39;100.00
42587;BME280;28216;53.362;-6.288;2023-03-18T13:25:39;100454.13;;;11.53;100.00
42587;BME280;28216;53.362;-6.288;2023-03-18T13:34:28;100449.28;;;11.65;100.00
42587;BME280;28216;53.362;-6.288;2023-03-18T13:37:24;100454.38;;;11.66;100.00
42587;BME280;28216;53.362;-6.288;2023-03-18T13:40:13;100448.88;;;11.76;100.00
42587;BME280;28216;53.362;-6.288;2023-03-18T13:42:44;100445.50;;;11.98;100.00
42587;BME280;28216;53.362;-6.288;2023-03-18T13:47:55;100453.84;;;11.71;100.00
42587;BME280;28216;53.362;-6.288;2023-03-18T13:50:26;100449.59;;;11.70;100.00
42587;BME280;28216;53.362;-6.288;2023-03-18T13:52:56;100453.25;;;11.61;100.00
42587;BME280;28216;53.362;-6.288;2023-03-18T13:55:37;100461.09;;;11.38;100.00
42587;BME280;28216;53.362;-6.288;2023-03-18T13:58:45;100463.28;;;11.26;100.00
42587;BME280;28216;53.362;-6.288;2023-03-18T14:04:29;100476.72;;;11.31;100.00
42587;BME280;28216;53.362;-6.288;2023-03-18T14:22:44;100496.47;;;11.50;100.00
42587;BME280;28216;53.362;-6.288;2023-03-18T14:27:52;100499.94;;;11.42;100.00
42587;BME280;28216;53.362;-6.288;2023-03-18T14:32:59;100498.31;;;11.72;100.00
42587;BME280;28216;53.362;-6.288;2023-03-18T14:35:27;100506.63;;;11.92;100.00
42587;BME280;28216;53.362;-6.288;2023-03-18T14:38:03;100504.81;;;11.93;100.00
42587;BME280;28216;53.362;-6.288;2023-03-18T14:40:42;100516.91;;;12.02;100.00
42587;BME280;28216;53.362;-6.288;2023-03-18T14:43:26;100524.84;;;11.94;100.00
42587;BME280;28216;53.362;-6.288;2023-03-18T14:46:00;100532.91;;;11.92;100.00
42587;BME280;28216;53.362;-6.288;2023-03-18T14:48:32;100545.88;;;11.86;100.00